createdAt,value
2023-05-14T00:04:01.615Z,101643.94
2023-05-14T00:09:04.692Z,101643.25
2023-05-14T00:14:08.838Z,101644.28
2023-05-14T00:19:11.943Z,101641.75
2023-05-14T00:24:14.842Z,101634.63
2023-05-14T00:29:18.995Z,101627.09
2023-05-14T00:34:21.754Z,101624.31
2023-05-14T00:39:24.471Z,101624.06
2023-05-14T00:44:28.601Z,101616.28
2023-05-14T00:49:31.541Z,101605.69
2023-05-14T00:54:34.459Z,101619.72
2023-05-14T00:59:40.881Z,101604.50
2023-05-14T01:04:44.536Z,101609.56
2023-05-14T01:09:55.275Z,101616.78
2023-05-14T01:15:07.334Z,101631.38
2023-05-14T01:20:10.619Z,101627.16
2023-05-14T01:25:15.023Z,101620.06
2023-05-14T01:30:23.697Z,101621.41
2023-05-14T01:35:29.409Z,101623.09
2023-05-14T01:40:34.494Z,101618.63
2023-05-14T01:45:38.260Z,101613.56
2023-05-14T01:50:41.111Z,101610.06
2023-05-14T01:55:45.292Z,101619.50
2023-05-14T02:00:48.094Z,101619.44
2023-05-14T02:05:50.956Z,101612.94
2023-05-14T02:10:55.142Z,101607.78
2023-05-14T02:16:00.626Z,101606.25
2023-05-14T02:21:03.476Z,101613.41
2023-05-14T02:26:08.506Z,101602.31
2023-05-14T02:31:11.267Z,101605.94
2023-05-14T02:36:14.262Z,101599.63
2023-05-14T02:41:18.441Z,101596.72
2023-05-14T02:46:21.258Z,101595.66
2023-05-14T02:51:24.231Z,101596.72
2023-05-14T02:56:28.362Z,101593.22
2023-05-14T03:01:31.247Z,101594.31
2023-05-14T03:06:34.781Z,101598.97
2023-05-14T03:11:39.040Z,101593.38
2023-05-14T03:16:42.282Z,101598.41
2023-05-14T03:21:46.381Z,101587.16
2023-05-14T03:26:50.565Z,101592.81
2023-05-14T03:31:54.365Z,101586.50
2023-05-14T03:36:57.151Z,101589.72
2023-05-14T03:42:01.311Z,101587.25
2023-05-14T03:47:04.265Z,101591.78
2023-05-14T03:52:07.273Z,101587.31
2023-05-14T03:57:11.445Z,101591.09
2023-05-14T04:02:14.224Z,101596.19
2023-05-14T04:07:16.963Z,101593.13
2023-05-14T04:12:21.041Z,101598.09
2023-05-14T04:17:23.978Z,101593.31
2023-05-14T04:22:26.802Z,101591.88
2023-05-14T04:27:31.000Z,101589.69
2023-05-14T04:32:33.792Z,101593.84
2023-05-14T04:37:36.517Z,101591.69
2023-05-14T04:42:40.633Z,101595.28
2023-05-14T04:47:45.056Z,101598.63
2023-05-14T04:52:47.879Z,101595.38
2023-05-14T04:57:52.026Z,101593.91
2023-05-14T05:02:54.817Z,101595.09
2023-05-14T05:07:57.818Z,101591.66
2023-05-14T05:13:01.962Z,101594.81
2023-05-14T05:18:05.061Z,101599.22
2023-05-14T05:23:07.833Z,101586.38
2023-05-14T05:28:11.978Z,101597.88
2023-05-14T05:33:15.103Z,101599.47
2023-05-14T05:38:18.285Z,101600.03
2023-05-14T05:43:22.537Z,101604.03
2023-05-14T05:48:25.505Z,101601.53
2023-05-14T05:53:28.234Z,101595.84
2023-05-14T05:58:32.328Z,101597.72
2023-05-14T06:03:35.430Z,101595.25
2023-05-14T06:08:38.368Z,101590.91
2023-05-14T06:13:42.607Z,101595.78
2023-05-14T06:18:45.712Z,101596.75
2023-05-14T06:23:48.631Z,101596.97
2023-05-14T06:28:52.915Z,101595.22
2023-05-14T06:33:55.722Z,101595.41
2023-05-14T06:38:58.518Z,101593.50
2023-05-14T06:44:02.706Z,101584.88
2023-05-14T06:49:05.675Z,101586.28
2023-05-14T06:54:08.869Z,101580.97
2023-05-14T06:59:15.073Z,101588.91
2023-05-14T07:04:17.982Z,101570.13
2023-05-14T07:09:21.114Z,101576.53
2023-05-14T07:14:25.332Z,101567.81
2023-05-14T07:19:28.780Z,101565.25
2023-05-14T07:24:31.635Z,101552.69
2023-05-14T07:29:35.948Z,101555.91
2023-05-14T07:34:38.808Z,101550.50
2023-05-14T07:39:41.915Z,101544.41
2023-05-14T07:44:46.037Z,101540.97
2023-05-14T07:49:48.861Z,101532.66
2023-05-14T07:54:52.801Z,101535.63
2023-05-14T07:59:58.267Z,101532.56
2023-05-14T08:05:01.571Z,101522.88
2023-05-14T08:10:05.011Z,101521.63
2023-05-14T08:15:10.582Z,101522.69
2023-05-14T08:20:13.675Z,101519.06
2023-05-14T08:25:16.817Z,101522.34
2023-05-14T08:30:21.363Z,101515.53
2023-05-14T08:35:24.521Z,101506.69
2023-05-14T08:40:27.934Z,101507.09
2023-05-14T08:45:34.849Z,101502.44
2023-05-14T08:50:37.966Z,101502.72
2023-05-14T08:55:40.981Z,101494.94
2023-05-14T09:00:45.177Z,101494.69
2023-05-14T09:05:50.090Z,101490.09
2023-05-14T09:10:52.872Z,101479.97
2023-05-14T09:15:57.668Z,101481.53
2023-05-14T09:21:00.453Z,101483.59
2023-05-14T09:26:06.527Z,101471.25
2023-05-14T09:31:11.707Z,101458.72
2023-05-14T09:36:14.533Z,101461.56
2023-05-14T09:41:17.760Z,101460.34
2023-05-14T09:46:21.887Z,101451.38
2023-05-14T09:51:25.824Z,101446.75
2023-05-14T09:56:37.844Z,101439.25
2023-05-14T10:01:44.057Z,101450.59
2023-05-14T10:06:52.289Z,101430.25
2023-05-14T10:12:00.124Z,101434.25
2023-05-14T10:17:06.877Z,101423.91
2023-05-14T10:22:13.723Z,101420.16
2023-05-14T10:27:17.384Z,101420.16
2023-05-14T10:32:22.911Z,101427.72
2023-05-14T10:37:27.184Z,101408.97
2023-05-14T10:42:35.758Z,101406.72
2023-05-14T10:47:43.202Z,101404.44
2023-05-14T10:52:46.918Z,101401.16
2023-05-14T10:57:50.520Z,101397.34
2023-05-14T11:02:57.516Z,101394.38
2023-05-14T11:08:00.860Z,101382.00
2023-05-14T11:13:03.871Z,101379.41
2023-05-14T11:18:08.145Z,101380.38
2023-05-14T11:23:11.193Z,101378.97
2023-05-14T11:28:14.183Z,101372.06
2023-05-14T11:33:19.200Z,101359.47
2023-05-14T11:38:22.562Z,101355.00
2023-05-14T11:43:29.049Z,101353.84
2023-05-14T11:48:34.878Z,101348.22
2023-05-14T11:53:37.800Z,101344.47
2023-05-14T11:58:40.973Z,101344.94
2023-05-14T12:03:45.286Z,101339.38
2023-05-14T12:08:49.320Z,101338.75
2023-05-14T12:13:53.799Z,101326.16
2023-05-14T12:19:01.006Z,101326.38
2023-05-14T12:24:04.020Z,101308.88
2023-05-14T12:29:07.896Z,101305.06
2023-05-14T12:34:12.071Z,101300.88
2023-05-14T12:39:16.836Z,101304.03
2023-05-14T12:44:21.945Z,101298.16
2023-05-14T12:49:26.146Z,101306.53
2023-05-14T12:54:29.030Z,101289.50
2023-05-14T12:59:31.840Z,101288.69
2023-05-14T13:04:36.031Z,101285.28
2023-05-14T13:09:38.963Z,101274.88
2023-05-14T13:14:41.677Z,101269.16
2023-05-14T13:19:45.869Z,101262.94
2023-05-14T13:24:48.693Z,101257.97
2023-05-14T13:29:51.409Z,101265.47
2023-05-14T13:34:55.680Z,101250.97
2023-05-14T13:39:58.477Z,101256.75
2023-05-14T13:45:01.501Z,101245.41
2023-05-14T13:50:06.672Z,101245.53
2023-05-14T13:55:09.924Z,101236.94
2023-05-14T14:00:13.698Z,101235.88
2023-05-14T14:05:17.954Z,101224.09
2023-05-14T14:10:20.805Z,101225.03
2023-05-14T14:15:23.743Z,101215.63
2023-05-14T14:20:28.095Z,101211.88
2023-05-14T14:25:30.849Z,101206.03
2023-05-14T14:30:34.634Z,101201.50
2023-05-14T14:35:38.882Z,101193.16
2023-05-14T14:40:41.725Z,101187.03
2023-05-14T14:45:46.863Z,101181.69
2023-05-14T14:50:52.702Z,101179.25
2023-05-14T14:55:55.624Z,101172.69
2023-05-14T15:00:59.323Z,101171.53
2023-05-14T15:06:03.515Z,101172.53
2023-05-14T15:11:07.308Z,101164.25
2023-05-14T15:16:10.255Z,101167.72
2023-05-14T15:21:14.535Z,101162.22
2023-05-14T15:26:17.352Z,101158.81
2023-05-14T15:31:20.201Z,101142.34
2023-05-14T15:36:24.416Z,101147.38
2023-05-14T15:41:28.734Z,101155.22
2023-05-14T15:46:32.208Z,101148.19
2023-05-14T15:51:36.688Z,101148.91
2023-05-14T15:56:40.489Z,101141.88
2023-05-14T16:01:43.372Z,101140.03
2023-05-14T16:06:47.593Z,101122.44
2023-05-14T16:11:50.443Z,101125.44
2023-05-14T16:16:54.520Z,101125.38
2023-05-14T16:21:58.696Z,101131.31
2023-05-14T16:27:01.523Z,101131.81
2023-05-14T16:32:04.591Z,101116.13
2023-05-14T16:37:10.213Z,101129.00
2023-05-14T16:42:14.348Z,101120.47
2023-05-14T16:47:17.371Z,101114.88
2023-05-14T16:52:21.694Z,101116.75
2023-05-14T16:57:25.521Z,101115.63
2023-05-14T17:02:28.301Z,101106.47
2023-05-14T17:07:32.480Z,101109.84
2023-05-14T17:12:35.307Z,101110.69
2023-05-14T17:17:38.216Z,101112.06
2023-05-14T17:22:42.782Z,101108.72
2023-05-14T17:27:45.724Z,101110.84
2023-05-14T17:32:51.437Z,101109.09
2023-05-14T17:37:59.893Z,101112.66
2023-05-14T17:43:03.309Z,101112.06
2023-05-14T17:48:07.029Z,101121.56
2023-05-14T17:53:11.214Z,101120.09
2023-05-14T17:58:16.268Z,101105.28
2023-05-14T18:03:20.861Z,101106.59
2023-05-14T18:08:27.993Z,101114.56
2023-05-14T18:13:31.058Z,101112.13
2023-05-14T18:18:39.945Z,101116.13
2023-05-14T18:23:45.380Z,101113.81
2023-05-14T18:28:48.686Z,101113.75
2023-05-14T18:33:54.519Z,101126.75
2023-05-14T18:38:58.786Z,101121.72
2023-05-14T18:44:03.081Z,101129.41
2023-05-14T18:49:06.162Z,101128.34
2023-05-14T18:54:10.583Z,101129.00
2023-05-14T18:59:13.398Z,101133.91
2023-05-14T19:04:51.834Z,101127.56
2023-05-14T19:10:04.829Z,101132.44
2023-05-14T19:15:08.754Z,101131.19
2023-05-14T19:20:14.904Z,101133.19
2023-05-14T19:25:19.365Z,101133.88
2023-05-14T19:30:22.849Z,101135.44
2023-05-14T19:35:26.022Z,101131.31
2023-05-14T19:40:30.419Z,101134.03
2023-05-14T19:45:36.568Z,101137.97
2023-05-14T19:50:39.367Z,101129.88
2023-05-14T19:55:43.922Z,101133.00
2023-05-14T20:00:47.386Z,101124.97
2023-05-14T20:05:53.511Z,101130.66
2023-05-14T20:10:57.706Z,101134.50
2023-05-14T20:16:01.100Z,101126.88
2023-05-14T20:21:05.503Z,101138.63
2023-05-14T20:26:10.108Z,101130.09
2023-05-14T20:31:12.962Z,101119.88
2023-05-14T20:36:17.483Z,101129.41
2023-05-14T20:41:22.243Z,101121.88
2023-05-14T20:46:26.738Z,101110.56
2023-05-14T20:51:29.678Z,101109.41
2023-05-14T20:56:34.187Z,101104.00
2023-05-14T21:01:37.389Z,101096.94
2023-05-14T21:06:40.195Z,101100.91
2023-05-14T21:11:44.473Z,101094.09
2023-05-14T21:16:47.698Z,101091.16
2023-05-14T21:21:50.640Z,101076.72
2023-05-14T21:26:58.207Z,101081.25
2023-05-14T21:32:01.065Z,101068.94
2023-05-14T21:37:06.154Z,101068.88
2023-05-14T21:42:12.225Z,101075.25
2023-05-14T21:47:16.211Z,101058.22
2023-05-14T21:52:18.978Z,101065.78
2023-05-14T21:57:23.350Z,101068.44
2023-05-14T22:02:26.249Z,101064.91
2023-05-14T22:07:29.182Z,101065.28
2023-05-14T22:12:33.319Z,101061.16
2023-05-14T22:17:36.693Z,101054.28
2023-05-14T22:22:40.070Z,101049.22
2023-05-14T22:27:44.216Z,101052.09
2023-05-14T22:32:47.455Z,101042.09
2023-05-14T22:37:50.261Z,101036.09
2023-05-14T22:42:54.531Z,101026.09
2023-05-14T22:47:57.410Z,101021.91
2023-05-14T22:53:00.349Z,101023.63
2023-05-14T22:58:04.526Z,101013.69
2023-05-14T23:03:07.318Z,101003.97
2023-05-14T23:08:10.128Z,100998.28
2023-05-14T23:13:14.275Z,101001.56
2023-05-14T23:18:17.318Z,100995.44
2023-05-14T23:23:20.128Z,100993.00
2023-05-14T23:28:24.839Z,100980.25
2023-05-14T23:33:27.664Z,100975.63
2023-05-14T23:38:30.495Z,100972.19
2023-05-14T23:43:34.630Z,100966.28
2023-05-14T23:48:37.442Z,100961.19
2023-05-14T23:53:40.284Z,100959.47
2023-05-14T23:58:44.635Z,100950.03
